Language: 


Des rapports , des résumés tant et plus, au choix de chacun....


Données Historiques de Météogheer
Journalier Rapport pour Janvier 19, 2017 Unitée:  Les deux    Impériale   Métrique
Suivant Jour »
Journalier Hebdomadaire Mensuel Annuel Sur mesure
  Max: Min: Moyenne:
Température: 39.2 °F /  4.0 °C 26.2 °F /  -3.2 °C 31.1 °F /  -0.5 °C
Point de rosée: 28.9 °F /  -1.7 °C 22.8 °F /  -5.1 °C 25.9 °F /  -3.4 °C
Humidité: 97% 0% 82%
Vent: 10.7mph /  17.2km/h - 5.6mph /  9km/h
Rafales: 12.5mph /  20.1km/h - -
Vent- - NE
Pression: 30.6 in /  1036.1 hPa 30.5 in /  1033.1 hPa -
Pluie: 0 in /  0.0 mm    
Historical Graphs
 
 
Données tabulaires pour Janvier 19, 2017
Heure Température Point de rosée Pression Vent Vent Rafales Humidité Pluie Taux (Horaire) Conditions
00:03 27.3 °F /  -2.6 °C 26.2 °F /  -3.2 °C 30.6in /  1036.1hPa NNE 4.7mph /  7.6km/h 5.8mph /  9.3km/h 95% 0in /  0.0mm
00:08 27.7 °F /  -2.4 °C 26.6 °F /  -3.0 °C 30.6in /  1036.1hPa NE 3.8mph /  6.1km/h 5.8mph /  9.3km/h 96% 0in /  0.0mm
00:13 27.3 °F /  -2.6 °C 26.2 °F /  -3.2 °C 30.6in /  1036.1hPa NNE 4.3mph /  6.9km/h 6.3mph /  10.1km/h 95% 0in /  0.0mm
00:18 27.1 °F /  -2.7 °C 26.1 °F /  -3.3 °C 30.6in /  1036.1hPa NE 6.5mph /  10.5km/h 7.4mph /  11.9km/h 95% 0in /  0.0mm
00:23 27.3 °F /  -2.6 °C 26.4 °F /  -3.1 °C 30.6in /  1036.1hPa North 5.8mph /  9.3km/h 7.8mph /  12.6km/h 96% 0in /  0.0mm
00:28 27.3 °F /  -2.6 °C 26.4 °F /  -3.1 °C 30.6in /  1036.1hPa NNE 4.9mph /  7.9km/h 7.8mph /  12.6km/h 96% 0in /  0.0mm
00:33 27.3 °F /  -2.6 °C 26.4 °F /  -3.1 °C 30.6in /  1036.1hPa NNE 5.8mph /  9.3km/h 7.8mph /  12.6km/h 96% 0in /  0.0mm
00:38 27.3 °F /  -2.6 °C 26.4 °F /  -3.1 °C 30.6in /  1036.1hPa NNE 4.9mph /  7.9km/h 7.8mph /  12.6km/h 96% 0in /  0.0mm
00:43 27.3 °F /  -2.6 °C 26.4 °F /  -3.1 °C 30.6in /  1036.1hPa NNE 4.3mph /  6.9km/h 6.5mph /  10.5km/h 96% 0in /  0.0mm
00:48 27.1 °F /  -2.7 °C 26.2 °F /  -3.2 °C 30.6in /  1036.1hPa NE 3.8mph /  6.1km/h 6.5mph /  10.5km/h 96% 0in /  0.0mm
00:53 27.1 °F /  -2.7 °C 26.2 °F /  -3.2 °C 30.6in /  1036.1hPa NNE 6.3mph /  10.1km/h 6.5mph /  10.5km/h 96% 0in /  0.0mm
00:58 27.1 °F /  -2.7 °C 26.2 °F /  -3.2 °C 30.6in /  1036.1hPa NNE 3.1mph /  5.0km/h 6.3mph /  10.1km/h 96% 0in /  0.0mm
01:03 27.1 °F /  -2.7 °C 26.2 °F /  -3.2 °C 30.6in /  1036.1hPa ENE 4.3mph /  6.9km/h 6.3mph /  10.1km/h 96% 0in /  0.0mm
01:08 27.1 °F /  -2.7 °C 26.1 °F /  -3.3 °C 30.6in /  1035.1hPa NNE 6.3mph /  10.1km/h 6.3mph /  10.1km/h 96% 0in /  0.0mm
01:13 27.1 °F /  -2.7 °C 25.9 °F /  -3.4 °C 30.6in /  1035.1hPa NNE 5.4mph /  8.7km/h 6.3mph /  10.1km/h 95% 0in /  0.0mm
01:18 27.1 °F /  -2.7 °C 26.1 °F /  -3.3 °C 30.6in /  1035.1hPa NNE 6.3mph /  10.1km/h 6.3mph /  10.1km/h 96% 0in /  0.0mm
01:23 27.1 °F /  -2.7 °C 26.1 °F /  -3.3 °C 30.6in /  1035.1hPa NE 6.3mph /  10.1km/h 6.5mph /  10.5km/h 96% 0in /  0.0mm
01:28 27.1 °F /  -2.7 °C 26.1 °F /  -3.3 °C 30.6in /  1035.1hPa NE 6mph /  9.7km/h 6.5mph /  10.5km/h 96% 0in /  0.0mm
01:33 27.1 °F /  -2.7 °C 26.1 °F /  -3.3 °C 30.6in /  1035.1hPa NNE 4.9mph /  7.9km/h 6.5mph /  10.5km/h 96% 0in /  0.0mm
01:38 27.1 °F /  -2.7 °C 26.1 °F /  -3.3 °C 30.6in /  1035.1hPa NE 5.8mph /  9.3km/h 7.6mph /  12.2km/h 96% 0in /  0.0mm
01:43 27.1 °F /  -2.7 °C 26.1 °F /  -3.3 °C 30.6in /  1035.1hPa NNE 7.2mph /  11.6km/h 7.6mph /  12.2km/h 96% 0in /  0.0mm
01:48 27.1 °F /  -2.7 °C 26.1 °F /  -3.3 °C 30.6in /  1035.1hPa NE 5.6mph /  9.0km/h 7.4mph /  11.9km/h 96% 0in /  0.0mm
01:53 27.1 °F /  -2.7 °C 26.1 °F /  -3.3 °C 30.6in /  1035.1hPa NE 6.3mph /  10.1km/h 7.4mph /  11.9km/h 96% 0in /  0.0mm
01:58 27 °F /  -2.8 °C 25.9 °F /  -3.4 °C 30.6in /  1035.1hPa NE 5.6mph /  9.0km/h 8.1mph /  13.0km/h 96% 0in /  0.0mm
02:03 32 °F /  0.0 °C 25.9 °F /  -3.4 °C 30.6in /  1035.1hPa NNE 6mph /  9.7km/h 6.3mph /  10.1km/h 0% 0in /  0.0mm
02:08 27 °F /  -2.8 °C 25.9 °F /  -3.4 °C 30.6in /  1035.1hPa North 6.3mph /  10.1km/h 7.2mph /  11.6km/h 96% 0in /  0.0mm
02:13 27 °F /  -2.8 °C 25.9 °F /  -3.4 °C 30.6in /  1035.1hPa NNE 4.3mph /  6.9km/h 7.2mph /  11.6km/h 96% 0in /  0.0mm
02:18 27 °F /  -2.8 °C 25.9 °F /  -3.4 °C 30.6in /  1035.1hPa NNE 4.7mph /  7.6km/h 6.5mph /  10.5km/h 96% 0in /  0.0mm
02:23 27 °F /  -2.8 °C 25.9 °F /  -3.4 °C 30.6in /  1035.1hPa NNE 4.9mph /  7.9km/h 6.3mph /  10.1km/h 96% 0in /  0.0mm
02:28 26.8 °F /  -2.9 °C 25.7 °F /  -3.5 °C 30.6in /  1035.1hPa NE 4.3mph /  6.9km/h 6.5mph /  10.5km/h 96% 0in /  0.0mm
02:33 26.8 °F /  -2.9 °C 25.7 °F /  -3.5 °C 30.6in /  1035.1hPa NNE 6mph /  9.7km/h 6.5mph /  10.5km/h 96% 0in /  0.0mm
02:38 26.8 °F /  -2.9 °C 25.7 °F /  -3.5 °C 30.6in /  1035.1hPa NE 6.5mph /  10.5km/h 6.5mph /  10.5km/h 96% 0in /  0.0mm
02:43 26.8 °F /  -2.9 °C 25.7 °F /  -3.5 °C 30.6in /  1035.1hPa NE 5.6mph /  9.0km/h 6.5mph /  10.5km/h 96% 0in /  0.0mm
02:48 26.8 °F /  -2.9 °C 25.7 °F /  -3.5 °C 30.6in /  1035.1hPa NE 6mph /  9.7km/h 7.6mph /  12.2km/h 96% 0in /  0.0mm
02:53 26.8 °F /  -2.9 °C 26.1 °F /  -3.3 °C 30.5in /  1034.1hPa NNE 5.8mph /  9.3km/h 7.6mph /  12.2km/h 97% 0in /  0.0mm
02:58 26.8 °F /  -2.9 °C 25.7 °F /  -3.5 °C 30.5in /  1034.1hPa NE 5.4mph /  8.7km/h 7.4mph /  11.9km/h 96% 0in /  0.0mm
03:03 26.8 °F /  -2.9 °C 25.7 °F /  -3.5 °C 30.5in /  1034.1hPa NNE 5.4mph /  8.7km/h 7.4mph /  11.9km/h 96% 0in /  0.0mm
03:08 26.8 °F /  -2.9 °C 25.7 °F /  -3.5 °C 30.6in /  1035.1hPa NNE 4.7mph /  7.6km/h 5.8mph /  9.3km/h 96% 0in /  0.0mm
03:13 26.8 °F /  -2.9 °C 25.7 °F /  -3.5 °C 30.6in /  1035.1hPa NE 4.9mph /  7.9km/h 6.3mph /  10.1km/h 96% 0in /  0.0mm
03:18 26.8 °F /  -2.9 °C 25.7 °F /  -3.5 °C 30.6in /  1035.1hPa NE 5.4mph /  8.7km/h 6.3mph /  10.1km/h 96% 0in /  0.0mm
03:23 26.8 °F /  -2.9 °C 25.7 °F /  -3.5 °C 30.6in /  1035.1hPa NE 5.8mph /  9.3km/h 6.3mph /  10.1km/h 96% 0in /  0.0mm
03:28 26.8 °F /  -2.9 °C 25.7 °F /  -3.5 °C 30.6in /  1035.1hPa NNE 3.8mph /  6.1km/h 6mph /  9.7km/h 96% 0in /  0.0mm
03:33 26.8 °F /  -2.9 °C 25.7 °F /  -3.5 °C 30.6in /  1035.1hPa NNE 3.6mph /  5.8km/h 7.2mph /  11.6km/h 96% 0in /  0.0mm
03:38 26.4 °F /  -3.1 °C 25.5 °F /  -3.6 °C 30.5in /  1034.1hPa NNE 5.8mph /  9.3km/h 7.2mph /  11.6km/h 96% 0in /  0.0mm
03:43 26.4 °F /  -3.1 °C 25.5 °F /  -3.6 °C 30.5in /  1034.1hPa NNE 3.1mph /  5.0km/h 6.5mph /  10.5km/h 96% 0in /  0.0mm
03:48 26.4 °F /  -3.1 °C 25.5 °F /  -3.6 °C 30.5in /  1034.1hPa NE 6mph /  9.7km/h 6.5mph /  10.5km/h 96% 0in /  0.0mm
03:53 26.4 °F /  -3.1 °C 25.5 °F /  -3.6 °C 30.6in /  1035.1hPa NNE 3.1mph /  5.0km/h 6.3mph /  10.1km/h 96% 0in /  0.0mm
03:58 26.4 °F /  -3.1 °C 25.5 °F /  -3.6 °C 30.6in /  1035.1hPa NNE 5.6mph /  9.0km/h 7.8mph /  12.6km/h 96% 0in /  0.0mm
04:03 26.4 °F /  -3.1 °C 25.9 °F /  -3.4 °C 30.6in /  1035.1hPa NE 6.3mph /  10.1km/h 7.8mph /  12.6km/h 97% 0in /  0.0mm
04:08 26.4 °F /  -3.1 °C 25.9 °F /  -3.4 °C 30.6in /  1035.1hPa NNE 5.6mph /  9.0km/h 7.4mph /  11.9km/h 97% 0in /  0.0mm
04:13 26.4 °F /  -3.1 °C 25.9 °F /  -3.4 °C 30.6in /  1035.1hPa NE 6mph /  9.7km/h 7.4mph /  11.9km/h 97% 0in /  0.0mm
04:18 26.4 °F /  -3.1 °C 25.9 °F /  -3.4 °C 30.6in /  1035.1hPa NNE 6.3mph /  10.1km/h 7.6mph /  12.2km/h 97% 0in /  0.0mm
04:23 26.4 °F /  -3.1 °C 25.9 °F /  -3.4 °C 30.5in /  1034.1hPa NE 4.3mph /  6.9km/h 8.1mph /  13.0km/h 97% 0in /  0.0mm
04:28 26.4 °F /  -3.1 °C 25.9 °F /  -3.4 °C 30.5in /  1034.1hPa NE 4.9mph /  7.9km/h 8.1mph /  13.0km/h 97% 0in /  0.0mm
04:33 26.8 °F /  -2.9 °C 26.1 °F /  -3.3 °C 30.5in /  1034.1hPa NE 5.6mph /  9.0km/h 7.4mph /  11.9km/h 97% 0in /  0.0mm
04:38 26.8 °F /  -2.9 °C 26.1 °F /  -3.3 °C 30.6in /  1035.1hPa NE 7.2mph /  11.6km/h 7.8mph /  12.6km/h 97% 0in /  0.0mm
04:43 26.8 °F /  -2.9 °C 26.1 °F /  -3.3 °C 30.6in /  1035.1hPa NNE 4mph /  6.4km/h 7.8mph /  12.6km/h 97% 0in /  0.0mm
04:48 26.8 °F /  -2.9 °C 26.1 °F /  -3.3 °C 30.6in /  1035.1hPa NE 6.5mph /  10.5km/h 7.8mph /  12.6km/h 97% 0in /  0.0mm
04:53 26.8 °F /  -2.9 °C 26.1 °F /  -3.3 °C 30.6in /  1035.1hPa NE 5.6mph /  9.0km/h 8.7mph /  14.0km/h 97% 0in /  0.0mm
04:58 26.8 °F /  -2.9 °C 26.1 °F /  -3.3 °C 30.6in /  1035.1hPa NNE 4.9mph /  7.9km/h 8.7mph /  14.0km/h 97% 0in /  0.0mm
05:03 26.8 °F /  -2.9 °C 26.1 °F /  -3.3 °C 30.6in /  1035.1hPa NNE 6mph /  9.7km/h 7.8mph /  12.6km/h 97% 0in /  0.0mm
05:08 26.8 °F /  -2.9 °C 26.1 °F /  -3.3 °C 30.6in /  1035.1hPa NNE 5.8mph /  9.3km/h 7.8mph /  12.6km/h 97% 0in /  0.0mm
05:13 26.8 °F /  -2.9 °C 26.1 °F /  -3.3 °C 30.6in /  1035.1hPa NE 5.8mph /  9.3km/h 8.7mph /  14.0km/h 97% 0in /  0.0mm
05:18 26.8 °F /  -2.9 °C 26.1 °F /  -3.3 °C 30.6in /  1035.1hPa NNE 6.3mph /  10.1km/h 8.7mph /  14.0km/h 97% 0in /  0.0mm
05:23 26.8 °F /  -2.9 °C 26.1 °F /  -3.3 °C 30.6in /  1035.1hPa NNE 6.3mph /  10.1km/h 7.2mph /  11.6km/h 97% 0in /  0.0mm
05:28 26.8 °F /  -2.9 °C 26.1 °F /  -3.3 °C 30.6in /  1035.1hPa NNE 5.4mph /  8.7km/h 8.1mph /  13.0km/h 97% 0in /  0.0mm
05:33 27 °F /  -2.8 °C 26.1 °F /  -3.3 °C 30.6in /  1035.1hPa NE 8.5mph /  13.7km/h 8.5mph /  13.7km/h 97% 0in /  0.0mm
05:38 26.8 °F /  -2.9 °C 26.1 °F /  -3.3 °C 30.6in /  1035.1hPa NE 5.4mph /  8.7km/h 8.5mph /  13.7km/h 97% 0in /  0.0mm
05:43 27 °F /  -2.8 °C 26.1 °F /  -3.3 °C 30.6in /  1035.1hPa NE 5.8mph /  9.3km/h 7.4mph /  11.9km/h 97% 0in /  0.0mm
05:49 27 °F /  -2.8 °C 26.1 °F /  -3.3 °C 30.6in /  1035.1hPa ENE 5.6mph /  9.0km/h 8.7mph /  14.0km/h 97% 0in /  0.0mm
05:54 27.1 °F /  -2.7 °C 26.2 °F /  -3.2 °C 30.6in /  1035.1hPa NE 4.9mph /  7.9km/h 8.7mph /  14.0km/h 97% 0in /  0.0mm
05:59 27.1 °F /  -2.7 °C 26.2 °F /  -3.2 °C 30.6in /  1035.1hPa NE 5.6mph /  9.0km/h 8.1mph /  13.0km/h 97% 0in /  0.0mm
06:04 27.1 °F /  -2.7 °C 26.2 °F /  -3.2 °C 30.6in /  1035.1hPa NNE 7.2mph /  11.6km/h 8.1mph /  13.0km/h 97% 0in /  0.0mm
06:08 27.1 °F /  -2.7 °C 26.2 °F /  -3.2 °C 30.5in /  1034.1hPa NE 8.1mph /  13.0km/h 8.7mph /  14.0km/h 97% 0in /  0.0mm
06:14 27 °F /  -2.8 °C 26.1 °F /  -3.3 °C 30.5in /  1034.1hPa NNE 5.6mph /  9.0km/h 8.7mph /  14.0km/h 97% 0in /  0.0mm
06:19 27.1 °F /  -2.7 °C 26.2 °F /  -3.2 °C 30.5in /  1034.1hPa NE 7.6mph /  12.2km/h 8.5mph /  13.7km/h 97% 0in /  0.0mm
06:24 27.1 °F /  -2.7 °C 26.4 °F /  -3.1 °C 30.5in /  1034.1hPa NNE 7.8mph /  12.6km/h 11mph /  17.7km/h 97% 0in /  0.0mm
06:28 27.1 °F /  -2.7 °C 26.4 °F /  -3.1 °C 30.5in /  1034.1hPa NE 8.5mph /  13.7km/h 11mph /  17.7km/h 97% 0in /  0.0mm
06:34 27.1 °F /  -2.7 °C 26.4 °F /  -3.1 °C 30.5in /  1034.1hPa NNE 7.6mph /  12.2km/h 9.8mph /  15.8km/h 97% 0in /  0.0mm
06:38 27.1 °F /  -2.7 °C 26.2 °F /  -3.2 °C 30.5in /  1034.1hPa NNE 6.5mph /  10.5km/h 9.8mph /  15.8km/h 97% 0in /  0.0mm
06:44 27.1 °F /  -2.7 °C 26.2 °F /  -3.2 °C 30.5in /  1034.1hPa NE 8.5mph /  13.7km/h 8.9mph /  14.3km/h 97% 0in /  0.0mm
06:48 27.1 °F /  -2.7 °C 26.2 °F /  -3.2 °C 30.5in /  1034.1hPa NE 5.6mph /  9.0km/h 8.7mph /  14.0km/h 97% 0in /  0.0mm
06:53 27.1 °F /  -2.7 °C 26.2 °F /  -3.2 °C 30.5in /  1034.1hPa NE 6.7mph /  10.8km/h 8.7mph /  14.0km/h 97% 0in /  0.0mm
06:58 27.1 °F /  -2.7 °C 26.2 °F /  -3.2 °C 30.5in /  1034.1hPa NE 6.5mph /  10.5km/h 8.7mph /  14.0km/h 97% 0in /  0.0mm
07:03 27 °F /  -2.8 °C 25.9 °F /  -3.4 °C 30.5in /  1034.1hPa NE 5.6mph /  9.0km/h 8.1mph /  13.0km/h 96% 0in /  0.0mm
07:08 27 °F /  -2.8 °C 25.9 °F /  -3.4 °C 30.6in /  1035.1hPa NE 5.8mph /  9.3km/h 7.2mph /  11.6km/h 96% 0in /  0.0mm
07:13 27 °F /  -2.8 °C 25.9 °F /  -3.4 °C 30.6in /  1035.1hPa NE 4.7mph /  7.6km/h 7.2mph /  11.6km/h 96% 0in /  0.0mm
07:18 27.1 °F /  -2.7 °C 26.2 °F /  -3.2 °C 30.6in /  1035.1hPa NNE 5.8mph /  9.3km/h 7.4mph /  11.9km/h 97% 0in /  0.0mm
07:23 27 °F /  -2.8 °C 25.9 °F /  -3.4 °C 30.5in /  1034.1hPa NE 5.6mph /  9.0km/h 8.1mph /  13.0km/h 96% 0in /  0.0mm
07:28 26.8 °F /  -2.9 °C 26.1 °F /  -3.3 °C 30.5in /  1034.1hPa NE 4.9mph /  7.9km/h 8.1mph /  13.0km/h 97% 0in /  0.0mm
07:33 26.4 °F /  -3.1 °C 25.5 °F /  -3.6 °C 30.5in /  1034.1hPa NNE 3.8mph /  6.1km/h 5.8mph /  9.3km/h 96% 0in /  0.0mm
07:38 26.4 °F /  -3.1 °C 25.3 °F /  -3.7 °C 30.6in /  1035.1hPa NNE 2.7mph /  4.3km/h 5.4mph /  8.7km/h 96% 0in /  0.0mm
07:43 26.4 °F /  -3.1 °C 25.3 °F /  -3.7 °C 30.6in /  1035.1hPa NNE 3.4mph /  5.5km/h 5.6mph /  9.0km/h 96% 0in /  0.0mm
07:48 26.2 °F /  -3.2 °C 25.2 °F /  -3.8 °C 30.6in /  1035.1hPa NE 5.8mph /  9.3km/h 6.5mph /  10.5km/h 96% 0in /  0.0mm
07:53 26.2 °F /  -3.2 °C 25.2 °F /  -3.8 °C 30.6in /  1035.1hPa NE 6.3mph /  10.1km/h 7.6mph /  12.2km/h 96% 0in /  0.0mm
07:58 26.2 °F /  -3.2 °C 25.3 °F /  -3.7 °C 30.6in /  1035.1hPa NE 5.8mph /  9.3km/h 8.5mph /  13.7km/h 97% 0in /  0.0mm
08:03 26.2 °F /  -3.2 °C 25.3 °F /  -3.7 °C 30.6in /  1035.1hPa NE 5.4mph /  8.7km/h 8.5mph /  13.7km/h 97% 0in /  0.0mm
08:08 26.4 °F /  -3.1 °C 25.5 °F /  -3.6 °C 30.6in /  1035.1hPa NE 5.6mph /  9.0km/h 8.1mph /  13.0km/h 97% 0in /  0.0mm
08:13 26.2 °F /  -3.2 °C 25.3 °F /  -3.7 °C 30.6in /  1035.1hPa ENE 5.8mph /  9.3km/h 7.8mph /  12.6km/h 97% 0in /  0.0mm
08:18 26.2 °F /  -3.2 °C 25.3 °F /  -3.7 °C 30.6in /  1035.1hPa NE 5.6mph /  9.0km/h 8.7mph /  14.0km/h 97% 0in /  0.0mm
08:23 26.2 °F /  -3.2 °C 25.3 °F /  -3.7 °C 30.6in /  1035.1hPa NNE 5.6mph /  9.0km/h 8.7mph /  14.0km/h 97% 0in /  0.0mm
08:28 26.2 °F /  -3.2 °C 25.3 °F /  -3.7 °C 30.6in /  1035.1hPa NNE 6.3mph /  10.1km/h 8.1mph /  13.0km/h 97% 0in /  0.0mm
08:33 26.4 °F /  -3.1 °C 25.5 °F /  -3.6 °C 30.6in /  1035.1hPa NE 7.4mph /  11.9km/h 7.8mph /  12.6km/h 97% 0in /  0.0mm
08:38 26.4 °F /  -3.1 °C 25.5 °F /  -3.6 °C 30.6in /  1035.1hPa NNE 5.4mph /  8.7km/h 7.8mph /  12.6km/h 97% 0in /  0.0mm
08:43 26.4 °F /  -3.1 °C 25.5 °F /  -3.6 °C 30.6in /  1035.1hPa NE 7.6mph /  12.2km/h 8.1mph /  13.0km/h 97% 0in /  0.0mm
08:48 26.4 °F /  -3.1 °C 25.9 °F /  -3.4 °C 30.6in /  1035.1hPa NNE 8.1mph /  13.0km/h 9.2mph /  14.8km/h 97% 0in /  0.0mm
08:53 26.4 °F /  -3.1 °C 25.9 °F /  -3.4 °C 30.6in /  1036.1hPa NE 6.5mph /  10.5km/h 10.3mph /  16.6km/h 97% 0in /  0.0mm
08:58 26.4 °F /  -3.1 °C 25.9 °F /  -3.4 °C 30.6in /  1036.1hPa NE 6mph /  9.7km/h 10.3mph /  16.6km/h 97% 0in /  0.0mm
09:03 26.8 °F /  -2.9 °C 26.1 °F /  -3.3 °C 30.6in /  1036.1hPa NE 6.3mph /  10.1km/h 8.5mph /  13.7km/h 97% 0in /  0.0mm
09:08 26.8 °F /  -2.9 °C 26.1 °F /  -3.3 °C 30.6in /  1035.1hPa NNE 7.4mph /  11.9km/h 8.5mph /  13.7km/h 97% 0in /  0.0mm
09:13 27 °F /  -2.8 °C 25.9 °F /  -3.4 °C 30.6in /  1035.1hPa NNE 6.7mph /  10.8km/h 8.5mph /  13.7km/h 96% 0in /  0.0mm
09:18 27.1 °F /  -2.7 °C 26.1 °F /  -3.3 °C 30.6in /  1035.1hPa NE 6.5mph /  10.5km/h 8.7mph /  14.0km/h 96% 0in /  0.0mm
09:23 27.1 °F /  -2.7 °C 26.1 °F /  -3.3 °C 30.6in /  1035.1hPa NNE 7.2mph /  11.6km/h 8.7mph /  14.0km/h 96% 0in /  0.0mm
09:28 27.1 °F /  -2.7 °C 26.2 °F /  -3.2 °C 30.6in /  1035.1hPa NE 6.3mph /  10.1km/h 8.1mph /  13.0km/h 96% 0in /  0.0mm
09:33 27.7 °F /  -2.4 °C 26.6 °F /  -3.0 °C 30.6in /  1035.1hPa ENE 6mph /  9.7km/h 8.7mph /  14.0km/h 96% 0in /  0.0mm
09:38 27.9 °F /  -2.3 °C 26.8 °F /  -2.9 °C 30.6in /  1035.1hPa ENE 7.4mph /  11.9km/h 8.7mph /  14.0km/h 96% 0in /  0.0mm
09:43 27.9 °F /  -2.3 °C 27 °F /  -2.8 °C 30.6in /  1035.1hPa ENE 3.6mph /  5.8km/h 7.4mph /  11.9km/h 96% 0in /  0.0mm
09:48 28 °F /  -2.2 °C 27.1 °F /  -2.7 °C 30.6in /  1035.1hPa ENE 5.6mph /  9.0km/h 7.4mph /  11.9km/h 96% 0in /  0.0mm
09:53 28.6 °F /  -1.9 °C 27.5 °F /  -2.5 °C 30.6in /  1035.1hPa NE 5.8mph /  9.3km/h 6.7mph /  10.8km/h 96% 0in /  0.0mm
09:58 28.6 °F /  -1.9 °C 27.7 °F /  -2.4 °C 30.6in /  1035.1hPa ENE 6.5mph /  10.5km/h 7.6mph /  12.2km/h 96% 0in /  0.0mm
10:03 28.9 °F /  -1.7 °C 28 °F /  -2.2 °C 30.6in /  1035.1hPa ENE 4.9mph /  7.9km/h 7.6mph /  12.2km/h 96% 0in /  0.0mm
10:08 29.5 °F /  -1.4 °C 28.2 °F /  -2.1 °C 30.6in /  1035.1hPa NE 3.1mph /  5.0km/h 6.9mph /  11.1km/h 95% 0in /  0.0mm
10:13 29.7 °F /  -1.3 °C 28.6 °F /  -1.9 °C 30.6in /  1035.1hPa ENE 5.6mph /  9.0km/h 7.2mph /  11.6km/h 95% 0in /  0.0mm
10:18 30 °F /  -1.1 °C 28.8 °F /  -1.8 °C 30.6in /  1035.1hPa NE 8.5mph /  13.7km/h 8.5mph /  13.7km/h 95% 0in /  0.0mm
10:23 30.2 °F /  -1.0 °C 28.8 °F /  -1.8 °C 30.6in /  1035.1hPa NE 6mph /  9.7km/h 8.5mph /  13.7km/h 94% 0in /  0.0mm
10:28 30.4 °F /  -0.9 °C 28.6 °F /  -1.9 °C 30.6in /  1035.1hPa ENE 5.4mph /  8.7km/h 8.5mph /  13.7km/h 93% 0in /  0.0mm
10:33 30.7 °F /  -0.7 °C 28.8 °F /  -1.8 °C 30.6in /  1035.1hPa ENE 7.8mph /  12.6km/h 8.5mph /  13.7km/h 92% 0in /  0.0mm
10:38 30.9 °F /  -0.6 °C 28.6 °F /  -1.9 °C 30.6in /  1035.1hPa NE 8.7mph /  14.0km/h 8.7mph /  14.0km/h 91% 0in /  0.0mm
10:43 31.3 °F /  -0.4 °C 28.8 °F /  -1.8 °C 30.6in /  1035.1hPa NE 6mph /  9.7km/h 8.7mph /  14.0km/h 90% 0in /  0.0mm
10:48 31.3 °F /  -0.4 °C 28.4 °F /  -2.0 °C 30.6in /  1035.1hPa NE 4mph /  6.4km/h 8.1mph /  13.0km/h 89% 0in /  0.0mm
10:53 31.8 °F /  -0.1 °C 28.9 °F /  -1.7 °C 30.6in /  1035.1hPa ENE 6mph /  9.7km/h 8.1mph /  13.0km/h 89% 0in /  0.0mm
10:58 32 °F /  0.0 °C 28.8 °F /  -1.8 °C 30.6in /  1035.1hPa ENE 6.5mph /  10.5km/h 7.4mph /  11.9km/h 88% 0in /  0.0mm
11:03 32.2 °F /  0.1 °C 28.8 °F /  -1.8 °C 30.6in /  1035.1hPa ENE 5.8mph /  9.3km/h 7.8mph /  12.6km/h 87% 0in /  0.0mm
11:08 32.4 °F /  0.2 °C 28.9 °F /  -1.7 °C 30.6in /  1035.1hPa ENE 8.7mph /  14.0km/h 8.9mph /  14.3km/h 87% 0in /  0.0mm
11:13 32.5 °F /  0.3 °C 28.6 °F /  -1.9 °C 30.6in /  1035.1hPa ENE 6.5mph /  10.5km/h 8.9mph /  14.3km/h 85% 0in /  0.0mm
11:18 32.9 °F /  0.5 °C 28.6 °F /  -1.9 °C 30.6in /  1035.1hPa NE 6.3mph /  10.1km/h 8.1mph /  13.0km/h 84% 0in /  0.0mm
11:23 33.1 °F /  0.6 °C 28.8 °F /  -1.8 °C 30.6in /  1035.1hPa NE 6.3mph /  10.1km/h 8.1mph /  13.0km/h 84% 0in /  0.0mm
11:28 33.3 °F /  0.7 °C 28.6 °F /  -1.9 °C 30.6in /  1035.1hPa NE 6.5mph /  10.5km/h 8.9mph /  14.3km/h 83% 0in /  0.0mm
11:33 33.3 °F /  0.7 °C 28.2 °F /  -2.1 °C 30.6in /  1035.1hPa ENE 5.4mph /  8.7km/h 8.9mph /  14.3km/h 82% 0in /  0.0mm
11:38 33.6 °F /  0.9 °C 28 °F /  -2.2 °C 30.6in /  1035.1hPa NE 6mph /  9.7km/h 8.1mph /  13.0km/h 80% 0in /  0.0mm
11:43 33.6 °F /  0.9 °C 27.9 °F /  -2.3 °C 30.6in /  1035.1hPa ENE 6.5mph /  10.5km/h 8.1mph /  13.0km/h 79% 0in /  0.0mm
11:48 34 °F /  1.1 °C 28 °F /  -2.2 °C 30.6in /  1035.1hPa ENE 6.3mph /  10.1km/h 8.1mph /  13.0km/h 79% 0in /  0.0mm
11:53 34.3 °F /  1.3 °C 28 °F /  -2.2 °C 30.6in /  1035.1hPa ENE 5.8mph /  9.3km/h 8.1mph /  13.0km/h 78% 0in /  0.0mm
11:58 34.5 °F /  1.4 °C 28.6 °F /  -1.9 °C 30.6in /  1035.1hPa East 7.4mph /  11.9km/h 7.4mph /  11.9km/h 78% 0in /  0.0mm
12:03 34.9 °F /  1.6 °C 28.2 °F /  -2.1 °C 30.6in /  1035.1hPa ESE 4mph /  6.4km/h 7.4mph /  11.9km/h 77% 0in /  0.0mm
12:08 34.9 °F /  1.6 °C 28.2 °F /  -2.1 °C 30.6in /  1035.1hPa East 7.4mph /  11.9km/h 8.5mph /  13.7km/h 77% 0in /  0.0mm
12:13 35.2 °F /  1.8 °C 28.4 °F /  -2.0 °C 30.6in /  1035.1hPa ENE 4mph /  6.4km/h 8.5mph /  13.7km/h 76% 0in /  0.0mm
12:18 35.4 °F /  1.9 °C 28.6 °F /  -1.9 °C 30.6in /  1035.1hPa ENE 6.3mph /  10.1km/h 7.6mph /  12.2km/h 76% 0in /  0.0mm
12:23 35.4 °F /  1.9 °C 27.7 °F /  -2.4 °C 30.6in /  1035.1hPa ENE 4.9mph /  7.9km/h 7.8mph /  12.6km/h 73% 0in /  0.0mm
12:28 36 °F /  2.2 °C 28 °F /  -2.2 °C 30.6in /  1035.1hPa East 5.4mph /  8.7km/h 7.8mph /  12.6km/h 73% 0in /  0.0mm
12:33 36.1 °F /  2.3 °C 28 °F /  -2.2 °C 30.6in /  1035.1hPa East 5.6mph /  9.0km/h 6mph /  9.7km/h 72% 0in /  0.0mm
12:38 36.1 °F /  2.3 °C 28.4 °F /  -2.0 °C 30.6in /  1035.1hPa ENE 6.3mph /  10.1km/h 7.2mph /  11.6km/h 73% 0in /  0.0mm
12:43 36.3 °F /  2.4 °C 27.7 °F /  -2.4 °C 30.6in /  1035.1hPa East 4.9mph /  7.9km/h 7.2mph /  11.6km/h 70% 0in /  0.0mm
12:48 36.9 °F /  2.7 °C 28.6 °F /  -1.9 °C 30.6in /  1035.1hPa NE 6.3mph /  10.1km/h 7.2mph /  11.6km/h 72% 0in /  0.0mm
12:53 36.9 °F /  2.7 °C 28.4 °F /  -2.0 °C 30.6in /  1035.1hPa East 4.9mph /  7.9km/h 7.2mph /  11.6km/h 71% 0in /  0.0mm
12:58 37 °F /  2.8 °C 28.2 °F /  -2.1 °C 30.6in /  1035.1hPa ENE 6.3mph /  10.1km/h 6.5mph /  10.5km/h 70% 0in /  0.0mm
13:03 37.6 °F /  3.1 °C 28.6 °F /  -1.9 °C 30.6in /  1035.1hPa ENE 6.5mph /  10.5km/h 6.5mph /  10.5km/h 70% 0in /  0.0mm
13:08 37.6 °F /  3.1 °C 27.9 °F /  -2.3 °C 30.6in /  1035.1hPa East 4.7mph /  7.6km/h 7.4mph /  11.9km/h 68% 0in /  0.0mm
13:13 37.6 °F /  3.1 °C 27.1 °F /  -2.7 °C 30.6in /  1035.1hPa NE 5.8mph /  9.3km/h 7.4mph /  11.9km/h 66% 0in /  0.0mm
13:18 37.6 °F /  3.1 °C 27.1 °F /  -2.7 °C 30.6in /  1035.1hPa NNE 6mph /  9.7km/h 6.7mph /  10.8km/h 66% 0in /  0.0mm
13:23 37.8 °F /  3.2 °C 28.2 °F /  -2.1 °C 30.5in /  1034.1hPa NE 4mph /  6.4km/h 7.2mph /  11.6km/h 68% 0in /  0.0mm
13:28 37.6 °F /  3.1 °C 27.3 °F /  -2.6 °C 30.5in /  1034.1hPa ENE 7.4mph /  11.9km/h 7.8mph /  12.6km/h 66% 0in /  0.0mm
13:33 37.8 °F /  3.2 °C 27.1 °F /  -2.7 °C 30.5in /  1034.1hPa NE 5.4mph /  8.7km/h 7.8mph /  12.6km/h 65% 0in /  0.0mm
13:38 37.8 °F /  3.2 °C 26.1 °F /  -3.3 °C 30.5in /  1034.1hPa NE 6mph /  9.7km/h 8.5mph /  13.7km/h 62% 0in /  0.0mm
13:43 37.8 °F /  3.2 °C 26.2 °F /  -3.2 °C 30.5in /  1034.1hPa NE 4.9mph /  7.9km/h 8.5mph /  13.7km/h 63% 0in /  0.0mm
13:48 38.1 °F /  3.4 °C 27.1 °F /  -2.7 °C 30.5in /  1034.1hPa ENE 6mph /  9.7km/h 7.4mph /  11.9km/h 64% 0in /  0.0mm
13:53 38.5 °F /  3.6 °C 26.8 °F /  -2.9 °C 30.5in /  1034.1hPa NE 8.1mph /  13.0km/h 8.1mph /  13.0km/h 63% 0in /  0.0mm
13:58 37.9 °F /  3.3 °C 26.1 °F /  -3.3 °C 30.5in /  1034.1hPa NNE 6mph /  9.7km/h 8.7mph /  14.0km/h 62% 0in /  0.0mm
14:04 38.1 °F /  3.4 °C 26.2 °F /  -3.2 °C 30.5in /  1034.1hPa NE 6mph /  9.7km/h 8.7mph /  14.0km/h 62% 0in /  0.0mm
14:09 38.5 °F /  3.6 °C 26.4 °F /  -3.1 °C 30.5in /  1034.1hPa NE 3.4mph /  5.5km/h 8.7mph /  14.0km/h 62% 0in /  0.0mm
14:14 38.5 °F /  3.6 °C 26.1 °F /  -3.3 °C 30.5in /  1034.1hPa NE 6.9mph /  11.1km/h 8.7mph /  14.0km/h 61% 0in /  0.0mm
14:18 38.5 °F /  3.6 °C 25.7 °F /  -3.5 °C 30.5in /  1034.1hPa ENE 6.5mph /  10.5km/h 8.7mph /  14.0km/h 60% 0in /  0.0mm
14:24 38.5 °F /  3.6 °C 25.9 °F /  -3.4 °C 30.5in /  1034.1hPa NE 6.5mph /  10.5km/h 8.7mph /  14.0km/h 60% 0in /  0.0mm
14:28 38.5 °F /  3.6 °C 25.9 °F /  -3.4 °C 30.5in /  1034.1hPa East 5.6mph /  9.0km/h 9.4mph /  15.1km/h 60% 0in /  0.0mm
14:33 38.7 °F /  3.7 °C 26.1 °F /  -3.3 °C 30.5in /  1034.1hPa ENE 4mph /  6.4km/h 9.4mph /  15.1km/h 60% 0in /  0.0mm
14:39 38.7 °F /  3.7 °C 26.1 °F /  -3.3 °C 30.5in /  1034.1hPa NE 6mph /  9.7km/h 7.8mph /  12.6km/h 60% 0in /  0.0mm
14:43 38.7 °F /  3.7 °C 25.5 °F /  -3.6 °C 30.5in /  1034.1hPa NE 5.8mph /  9.3km/h 7.2mph /  11.6km/h 59% 0in /  0.0mm
14:48 38.8 °F /  3.8 °C 26.2 °F /  -3.2 °C 30.5in /  1034.1hPa NE 4mph /  6.4km/h 7.2mph /  11.6km/h 60% 0in /  0.0mm
14:54 38.8 °F /  3.8 °C 25.9 °F /  -3.4 °C 30.5in /  1034.1hPa ENE 4.9mph /  7.9km/h 7.4mph /  11.9km/h 59% 0in /  0.0mm
14:59 39 °F /  3.9 °C 25.9 °F /  -3.4 °C 30.5in /  1034.1hPa NNE 3.8mph /  6.1km/h 7.4mph /  11.9km/h 59% 0in /  0.0mm
15:04 39 °F /  3.9 °C 25.9 °F /  -3.4 °C 30.5in /  1034.1hPa NE 6.5mph /  10.5km/h 6.7mph /  10.8km/h 59% 0in /  0.0mm
15:09 39 °F /  3.9 °C 25.9 °F /  -3.4 °C 30.5in /  1034.1hPa NE 4.7mph /  7.6km/h 7.6mph /  12.2km/h 59% 0in /  0.0mm
15:14 39 °F /  3.9 °C 25.9 °F /  -3.4 °C 30.5in /  1034.1hPa NE 4.9mph /  7.9km/h 7.6mph /  12.2km/h 59% 0in /  0.0mm
15:19 39 °F /  3.9 °C 25.9 °F /  -3.4 °C 30.5in /  1034.1hPa East 3.4mph /  5.5km/h 6.5mph /  10.5km/h 59% 0in /  0.0mm
15:24 39.2 °F /  4.0 °C 26.1 °F /  -3.3 °C 30.5in /  1034.1hPa East 4.9mph /  7.9km/h 6.5mph /  10.5km/h 59% 0in /  0.0mm
15:29 39.2 °F /  4.0 °C 25.7 °F /  -3.5 °C 30.5in /  1034.1hPa ENE 4.9mph /  7.9km/h 6.3mph /  10.1km/h 58% 0in /  0.0mm
15:34 39.2 °F /  4.0 °C 26.1 °F /  -3.3 °C 30.5in /  1034.1hPa ENE 5.4mph /  8.7km/h 6.3mph /  10.1km/h 59% 0in /  0.0mm
15:39 39 °F /  3.9 °C 25.9 °F /  -3.4 °C 30.5in /  1034.1hPa East 3.8mph /  6.1km/h 6mph /  9.7km/h 59% 0in /  0.0mm
15:44 39 °F /  3.9 °C 25.9 °F /  -3.4 °C 30.5in /  1034.1hPa East 5.8mph /  9.3km/h 6mph /  9.7km/h 59% 0in /  0.0mm
15:49 38.8 °F /  3.8 °C 25.3 °F /  -3.7 °C 30.5in /  1034.1hPa ENE 7.8mph /  12.6km/h 7.8mph /  12.6km/h 58% 0in /  0.0mm
15:54 38.7 °F /  3.7 °C 25.2 °F /  -3.8 °C 30.5in /  1034.1hPa NE 5.6mph /  9.0km/h 7.8mph /  12.6km/h 58% 0in /  0.0mm
15:59 38.7 °F /  3.7 °C 25.2 °F /  -3.8 °C 30.5in /  1034.1hPa East 4mph /  6.4km/h 7.8mph /  12.6km/h 58% 0in /  0.0mm
16:04 38.7 °F /  3.7 °C 25.2 °F /  -3.8 °C 30.5in /  1034.1hPa NNE 4mph /  6.4km/h 6.3mph /  10.1km/h 58% 0in /  0.0mm
16:09 38.7 °F /  3.7 °C 25.5 °F /  -3.6 °C 30.5in /  1034.1hPa East 3.1mph /  5.0km/h 5.6mph /  9.0km/h 59% 0in /  0.0mm
16:10 38.7 °F /  3.7 °C 25.5 °F /  -3.6 °C 30.5in /  1034.1hPa NE 3.1mph /  5.0km/h 5.6mph /  9.0km/h 59% 0in /  0.0mm
16:15 38.5 °F /  3.6 °C 25 °F /  -3.9 °C 30.5in /  1034.1hPa ENE 4.3mph /  6.9km/h 5.8mph /  9.3km/h 58% 0in /  0.0mm
16:20 38.5 °F /  3.6 °C 25.3 °F /  -3.7 °C 30.5in /  1034.1hPa NE 3.1mph /  5.0km/h 5.8mph /  9.3km/h 59% 0in /  0.0mm
16:25 37.8 °F /  3.2 °C 24.8 °F /  -4.0 °C 30.5in /  1034.1hPa ESE 4mph /  6.4km/h 5.6mph /  9.0km/h 59% 0in /  0.0mm
16:30 37.2 °F /  2.9 °C 24.3 °F /  -4.3 °C 30.5in /  1034.1hPa East 3.1mph /  5.0km/h 5.6mph /  9.0km/h 59% 0in /  0.0mm
16:35 36.9 °F /  2.7 °C 24.3 °F /  -4.3 °C 30.5in /  1034.1hPa East 3.4mph /  5.5km/h 5.6mph /  9.0km/h 60% 0in /  0.0mm
16:40 36.7 °F /  2.6 °C 24.4 °F /  -4.2 °C 30.5in /  1034.1hPa NE 4.9mph /  7.9km/h 6mph /  9.7km/h 61% 0in /  0.0mm
16:45 36.1 °F /  2.3 °C 24.1 °F /  -4.4 °C 30.5in /  1034.1hPa NE 3.8mph /  6.1km/h 6mph /  9.7km/h 61% 0in /  0.0mm
16:50 36 °F /  2.2 °C 24.1 °F /  -4.4 °C 30.5in /  1034.1hPa East 4.9mph /  7.9km/h 5.8mph /  9.3km/h 62% 0in /  0.0mm
16:55 35.4 °F /  1.9 °C 24.3 °F /  -4.3 °C 30.5in /  1034.1hPa ENE 3.8mph /  6.1km/h 5.8mph /  9.3km/h 63% 0in /  0.0mm
17:00 35.4 °F /  1.9 °C 24.1 °F /  -4.4 °C 30.5in /  1034.1hPa ENE 4mph /  6.4km/h 7.2mph /  11.6km/h 63% 0in /  0.0mm
17:05 35.2 °F /  1.8 °C 24.3 °F /  -4.3 °C 30.5in /  1034.1hPa NE 3.8mph /  6.1km/h 7.2mph /  11.6km/h 64% 0in /  0.0mm
17:10 34.9 °F /  1.6 °C 23.9 °F /  -4.5 °C 30.5in /  1034.1hPa ENE 3.8mph /  6.1km/h 4.9mph /  7.9km/h 64% 0in /  0.0mm
17:15 34.5 °F /  1.4 °C 23.5 °F /  -4.7 °C 30.5in /  1034.1hPa East 2.2mph /  3.5km/h 4.7mph /  7.6km/h 64% 0in /  0.0mm
17:20 34.2 °F /  1.2 °C 23.5 °F /  -4.7 °C 30.5in /  1034.1hPa ENE 2.5mph /  4.0km/h 3.8mph /  6.1km/h 65% 0in /  0.0mm
17:25 34 °F /  1.1 °C 23.7 °F /  -4.6 °C 30.5in /  1034.1hPa NE 3.6mph /  5.8km/h 3.6mph /  5.8km/h 66% 0in /  0.0mm
17:30 33.8 °F /  1.0 °C 23.5 °F /  -4.7 °C 30.5in /  1034.1hPa NE 3.8mph /  6.1km/h 4.3mph /  6.9km/h 66% 0in /  0.0mm
17:35 33.6 °F /  0.9 °C 24.1 °F /  -4.4 °C 30.5in /  1034.1hPa ENE 4.3mph /  6.9km/h 4.7mph /  7.6km/h 68% 0in /  0.0mm
17:40 33.6 °F /  0.9 °C 24.1 °F /  -4.4 °C 30.5in /  1034.1hPa NE 4.9mph /  7.9km/h 5.8mph /  9.3km/h 68% 0in /  0.0mm
17:45 33.6 °F /  0.9 °C 24.4 °F /  -4.2 °C 30.5in /  1034.1hPa ENE 4.3mph /  6.9km/h 5.8mph /  9.3km/h 69% 0in /  0.0mm
17:50 33.4 °F /  0.8 °C 24.3 °F /  -4.3 °C 30.5in /  1034.1hPa ENE 4.3mph /  6.9km/h 6.3mph /  10.1km/h 69% 0in /  0.0mm
17:55 33.4 °F /  0.8 °C 24.3 °F /  -4.3 °C 30.5in /  1034.1hPa ENE 3.8mph /  6.1km/h 6.3mph /  10.1km/h 69% 0in /  0.0mm
18:00 33.3 °F /  0.7 °C 24.3 °F /  -4.3 °C 30.5in /  1034.1hPa ENE 5.6mph /  9.0km/h 5.6mph /  9.0km/h 69% 0in /  0.0mm
18:05 33.3 °F /  0.7 °C 24.4 °F /  -4.2 °C 30.5in /  1034.1hPa NE 6.5mph /  10.5km/h 7.2mph /  11.6km/h 70% 0in /  0.0mm
18:10 33.6 °F /  0.9 °C 24.8 °F /  -4.0 °C 30.5in /  1034.1hPa ENE 6.5mph /  10.5km/h 8.1mph /  13.0km/h 70% 0in /  0.0mm
18:15 33.6 °F /  0.9 °C 24.8 °F /  -4.0 °C 30.5in /  1034.1hPa NE 6.5mph /  10.5km/h 8.5mph /  13.7km/h 70% 0in /  0.0mm
18:20 33.6 °F /  0.9 °C 24.8 °F /  -4.0 °C 30.5in /  1034.1hPa NE 8.1mph /  13.0km/h 8.5mph /  13.7km/h 70% 0in /  0.0mm
18:25 33.6 °F /  0.9 °C 24.8 °F /  -4.0 °C 30.5in /  1034.1hPa NNE 7.6mph /  12.2km/h 9.8mph /  15.8km/h 70% 0in /  0.0mm
18:30 33.3 °F /  0.7 °C 24.4 °F /  -4.2 °C 30.5in /  1034.1hPa ENE 8.7mph /  14.0km/h 10.3mph /  16.6km/h 70% 0in /  0.0mm
18:35 33.3 °F /  0.7 °C 24.4 °F /  -4.2 °C 30.5in /  1034.1hPa NE 10.3mph /  16.6km/h 10.5mph /  16.9km/h 70% 0in /  0.0mm
18:40 33.1 °F /  0.6 °C 24.6 °F /  -4.1 °C 30.5in /  1034.1hPa NE 10.7mph /  17.2km/h 10.7mph /  17.2km/h 71% 0in /  0.0mm
18:45 33.1 °F /  0.6 °C 25.3 °F /  -3.7 °C 30.5in /  1034.1hPa North 9.4mph /  15.1km/h 11mph /  17.7km/h 73% 0in /  0.0mm
18:50 32.9 °F /  0.5 °C 25.5 °F /  -3.6 °C 30.5in /  1034.1hPa NE 10.5mph /  16.9km/h 12.5mph /  20.1km/h 74% 0in /  0.0mm
18:55 32.7 °F /  0.4 °C 25.7 °F /  -3.5 °C 30.5in /  1033.1hPa NE 8.7mph /  14.0km/h 12.5mph /  20.1km/h 75% 0in /  0.0mm
19:00 32.7 °F /  0.4 °C 26.1 °F /  -3.3 °C 30.5in /  1033.1hPa NE 7.8mph /  12.6km/h 12.5mph /  20.1km/h 76% 0in /  0.0mm
19:05 32.5 °F /  0.3 °C 25.9 °F /  -3.4 °C 30.5in /  1033.1hPa NE 8.1mph /  13.0km/h 11.2mph /  18.0km/h 76% 0in /  0.0mm
19:10 32.5 °F /  0.3 °C 26.1 °F /  -3.3 °C 30.5in /  1034.1hPa NE 8.7mph /  14.0km/h 10.1mph /  16.3km/h 77% 0in /  0.0mm
19:15 32.5 °F /  0.3 °C 26.4 °F /  -3.1 °C 30.5in /  1034.1hPa NE 8.5mph /  13.7km/h 10.3mph /  16.6km/h 78% 0in /  0.0mm
19:20 32.5 °F /  0.3 °C 26.4 °F /  -3.1 °C 30.5in /  1034.1hPa NE 7.8mph /  12.6km/h 10.3mph /  16.6km/h 78% 0in /  0.0mm
19:25 32.7 °F /  0.4 °C 26.6 °F /  -3.0 °C 30.5in /  1034.1hPa NE 7.4mph /  11.9km/h 10.3mph /  16.6km/h 78% 0in /  0.0mm
19:30 32.7 °F /  0.4 °C 26.6 °F /  -3.0 °C 30.5in /  1034.1hPa NE 8.1mph /  13.0km/h 10.3mph /  16.6km/h 78% 0in /  0.0mm
19:35 32.7 °F /  0.4 °C 26.6 °F /  -3.0 °C 30.5in /  1034.1hPa ENE 5.8mph /  9.3km/h 9.8mph /  15.8km/h 78% 0in /  0.0mm
19:40 32.7 °F /  0.4 °C 26.6 °F /  -3.0 °C 30.5in /  1034.1hPa ENE 6.5mph /  10.5km/h 8.5mph /  13.7km/h 78% 0in /  0.0mm
19:45 32.5 °F /  0.3 °C 26.4 °F /  -3.1 °C 30.5in /  1034.1hPa NE 7.2mph /  11.6km/h 8.5mph /  13.7km/h 78% 0in /  0.0mm
19:50 32.5 °F /  0.3 °C 26.4 °F /  -3.1 °C 30.5in /  1034.1hPa ENE 7.8mph /  12.6km/h 9.8mph /  15.8km/h 78% 0in /  0.0mm
19:55 32.5 °F /  0.3 °C 26.4 °F /  -3.1 °C 30.5in /  1034.1hPa NE 6.3mph /  10.1km/h 9.8mph /  15.8km/h 78% 0in /  0.0mm
20:00 32.5 °F /  0.3 °C 26.4 °F /  -3.1 °C 30.5in /  1034.1hPa NE 7.6mph /  12.2km/h 9.6mph /  15.4km/h 78% 0in /  0.0mm
20:05 32.5 °F /  0.3 °C 26.1 °F /  -3.3 °C 30.5in /  1034.1hPa NE 5.8mph /  9.3km/h 9.6mph /  15.4km/h 77% 0in /  0.0mm
20:10 32.5 °F /  0.3 °C 26.1 °F /  -3.3 °C 30.5in /  1034.1hPa ENE 5.6mph /  9.0km/h 9.6mph /  15.4km/h 77% 0in /  0.0mm
20:15 32.4 °F /  0.2 °C 25.9 °F /  -3.4 °C 30.5in /  1034.1hPa ENE 6.3mph /  10.1km/h 7.8mph /  12.6km/h 77% 0in /  0.0mm
20:20 32.2 °F /  0.1 °C 25.9 °F /  -3.4 °C 30.5in /  1034.1hPa ENE 5.6mph /  9.0km/h 7.4mph /  11.9km/h 77% 0in /  0.0mm
20:25 32 °F /  0.0 °C 25.5 °F /  -3.6 °C 30.5in /  1034.1hPa NE 4mph /  6.4km/h 7.4mph /  11.9km/h 77% 0in /  0.0mm
20:30 31.8 °F /  -0.1 °C 25.3 °F /  -3.7 °C 30.5in /  1034.1hPa NE 5.6mph /  9.0km/h 6.5mph /  10.5km/h 77% 0in /  0.0mm
20:35 31.6 °F /  -0.2 °C 25.3 °F /  -3.7 °C 30.5in /  1034.1hPa ENE 5.4mph /  8.7km/h 6.5mph /  10.5km/h 77% 0in /  0.0mm
20:40 31.5 °F /  -0.3 °C 25.2 °F /  -3.8 °C 30.5in /  1034.1hPa ENE 3.6mph /  5.8km/h 6.3mph /  10.1km/h 77% 0in /  0.0mm
20:46 31.5 °F /  -0.3 °C 25.3 °F /  -3.7 °C 30.5in /  1034.1hPa ENE 4.5mph /  7.2km/h 5.8mph /  9.3km/h 78% 0in /  0.0mm
20:51 31.3 °F /  -0.4 °C 25.2 °F /  -3.8 °C 30.5in /  1034.1hPa ENE 4.7mph /  7.6km/h 6mph /  9.7km/h 78% 0in /  0.0mm
20:56 31.5 °F /  -0.3 °C 25.3 °F /  -3.7 °C 30.5in /  1034.1hPa ENE 8.1mph /  13.0km/h 8.1mph /  13.0km/h 78% 0in /  0.0mm
21:01 31.5 °F /  -0.3 °C 25.3 °F /  -3.7 °C 30.5in /  1034.1hPa ENE 6mph /  9.7km/h 8.1mph /  13.0km/h 78% 0in /  0.0mm
21:06 31.5 °F /  -0.3 °C 25.3 °F /  -3.7 °C 30.5in /  1034.1hPa ENE 4.9mph /  7.9km/h 8.1mph /  13.0km/h 78% 0in /  0.0mm
21:11 31.5 °F /  -0.3 °C 25.2 °F /  -3.8 °C 30.5in /  1034.1hPa NE 4.3mph /  6.9km/h 7.4mph /  11.9km/h 77% 0in /  0.0mm
21:16 31.3 °F /  -0.4 °C 25 °F /  -3.9 °C 30.5in /  1034.1hPa ENE 4.9mph /  7.9km/h 5.8mph /  9.3km/h 77% 0in /  0.0mm
21:21 31.1 °F /  -0.5 °C 24.6 °F /  -4.1 °C 30.5in /  1034.1hPa ENE 6.5mph /  10.5km/h 6.5mph /  10.5km/h 77% 0in /  0.0mm
21:26 31.1 °F /  -0.5 °C 24.6 °F /  -4.1 °C 30.5in /  1034.1hPa ENE 4mph /  6.4km/h 6.5mph /  10.5km/h 77% 0in /  0.0mm
21:31 31.1 °F /  -0.5 °C 24.6 °F /  -4.1 °C 30.5in /  1034.1hPa ENE 3.6mph /  5.8km/h 6mph /  9.7km/h 77% 0in /  0.0mm
21:36 30.9 °F /  -0.6 °C 24.6 °F /  -4.1 °C 30.5in /  1034.1hPa ENE 4mph /  6.4km/h 5.6mph /  9.0km/h 77% 0in /  0.0mm
21:41 30.7 °F /  -0.7 °C 24.6 °F /  -4.1 °C 30.5in /  1034.1hPa NE 3.4mph /  5.5km/h 5.8mph /  9.3km/h 78% 0in /  0.0mm
21:46 30.6 °F /  -0.8 °C 24.4 °F /  -4.2 °C 30.5in /  1034.1hPa NE 3.8mph /  6.1km/h 5.8mph /  9.3km/h 78% 0in /  0.0mm
21:51 30.4 °F /  -0.9 °C 24.4 °F /  -4.2 °C 30.5in /  1034.1hPa ENE 3.8mph /  6.1km/h 5.4mph /  8.7km/h 78% 0in /  0.0mm
21:56 30.2 °F /  -1.0 °C 24.3 °F /  -4.3 °C 30.5in /  1034.1hPa ENE 2.7mph /  4.3km/h 4.7mph /  7.6km/h 78% 0in /  0.0mm
22:01 30 °F /  -1.1 °C 24.1 °F /  -4.4 °C 30.5in /  1034.1hPa East 3.1mph /  5.0km/h 4.3mph /  6.9km/h 78% 0in /  0.0mm
22:06 30 °F /  -1.1 °C 24.1 °F /  -4.4 °C 30.5in /  1034.1hPa ENE 2.9mph /  4.7km/h 4.3mph /  6.9km/h 78% 0in /  0.0mm
22:11 30 °F /  -1.1 °C 24.1 °F /  -4.4 °C 30.5in /  1034.1hPa ENE 3.4mph /  5.5km/h 4.3mph /  6.9km/h 78% 0in /  0.0mm
22:16 29.8 °F /  -1.2 °C 23.9 °F /  -4.5 °C 30.5in /  1034.1hPa NE 3.6mph /  5.8km/h 4.7mph /  7.6km/h 78% 0in /  0.0mm
22:21 29.8 °F /  -1.2 °C 23.9 °F /  -4.5 °C 30.5in /  1034.1hPa NE 3.8mph /  6.1km/h 4.9mph /  7.9km/h 78% 0in /  0.0mm
22:26 29.8 °F /  -1.2 °C 23.9 °F /  -4.5 °C 30.5in /  1034.1hPa NE 4.9mph /  7.9km/h 5.6mph /  9.0km/h 78% 0in /  0.0mm
22:31 29.8 °F /  -1.2 °C 24.3 °F /  -4.3 °C 30.5in /  1034.1hPa ENE 3.6mph /  5.8km/h 5.6mph /  9.0km/h 79% 0in /  0.0mm
22:36 29.8 °F /  -1.2 °C 24.3 °F /  -4.3 °C 30.5in /  1034.1hPa NE 5.4mph /  8.7km/h 5.6mph /  9.0km/h 79% 0in /  0.0mm
22:41 29.8 °F /  -1.2 °C 23.9 °F /  -4.5 °C 30.5in /  1034.1hPa NE 5.6mph /  9.0km/h 5.8mph /  9.3km/h 78% 0in /  0.0mm
22:46 29.8 °F /  -1.2 °C 23.9 °F /  -4.5 °C 30.5in /  1034.1hPa ENE 4.3mph /  6.9km/h 6mph /  9.7km/h 78% 0in /  0.0mm
22:51 29.8 °F /  -1.2 °C 23.9 °F /  -4.5 °C 30.5in /  1034.1hPa NE 4.9mph /  7.9km/h 6mph /  9.7km/h 78% 0in /  0.0mm
22:56 29.8 °F /  -1.2 °C 23.9 °F /  -4.5 °C 30.5in /  1034.1hPa East 6.5mph /  10.5km/h 6.5mph /  10.5km/h 78% 0in /  0.0mm
23:01 29.8 °F /  -1.2 °C 23.9 °F /  -4.5 °C 30.5in /  1034.1hPa NE 6mph /  9.7km/h 6.5mph /  10.5km/h 78% 0in /  0.0mm
23:06 29.8 °F /  -1.2 °C 23.9 °F /  -4.5 °C 30.5in /  1034.1hPa NE 5.6mph /  9.0km/h 6.3mph /  10.1km/h 78% 0in /  0.0mm
23:11 29.8 °F /  -1.2 °C 23.9 °F /  -4.5 °C 30.5in /  1034.1hPa ENE 6mph /  9.7km/h 6.3mph /  10.1km/h 78% 0in /  0.0mm
23:16 29.7 °F /  -1.3 °C 23.7 °F /  -4.6 °C 30.5in /  1034.1hPa ENE 5.4mph /  8.7km/h 6.3mph /  10.1km/h 78% 0in /  0.0mm
23:21 29.7 °F /  -1.3 °C 23.7 °F /  -4.6 °C 30.5in /  1034.1hPa NE 3.4mph /  5.5km/h 5.8mph /  9.3km/h 78% 0in /  0.0mm
23:26 29.5 °F /  -1.4 °C 23.2 °F /  -4.9 °C 30.5in /  1034.1hPa ENE 3.6mph /  5.8km/h 5.8mph /  9.3km/h 77% 0in /  0.0mm
23:31 29.5 °F /  -1.4 °C 23 °F /  -5.0 °C 30.5in /  1034.1hPa ENE 3.8mph /  6.1km/h 4.3mph /  6.9km/h 77% 0in /  0.0mm
23:36 29.1 °F /  -1.6 °C 22.8 °F /  -5.1 °C 30.5in /  1034.1hPa ENE 4mph /  6.4km/h 5.8mph /  9.3km/h 77% 0in /  0.0mm
23:41 29.1 °F /  -1.6 °C 23.2 °F /  -4.9 °C 30.5in /  1034.1hPa NE 4.3mph /  6.9km/h 5.8mph /  9.3km/h 78% 0in /  0.0mm
23:46 29.5 °F /  -1.4 °C 23.4 °F /  -4.8 °C 30.5in /  1034.1hPa NE 4.9mph /  7.9km/h 6.5mph /  10.5km/h 78% 0in /  0.0mm
23:51 29.1 °F /  -1.6 °C 23.2 °F /  -4.9 °C 30.5in /  1034.1hPa NE 2.9mph /  4.7km/h 6.5mph /  10.5km/h 78% 0in /  0.0mm
23:56 28.8 °F /  -1.8 °C 22.8 °F /  -5.1 °C 30.5in /  1034.1hPa NNE 3.8mph /  6.1km/h 4.9mph /  7.9km/h 78% 0in /  0.0mm
Données Historique de Météo Turbie

Mise a jour : 25/05/2018 06:56:14
Généré par Cumulus 1.9.4 (1099)